KLWB/LWB METAR and TAF weather

Enter ICAO airport designator
Station Type Date Time Source
KLWB METAR 2019/12/16 03:35 UTC NOAA

KLWB 160335Z AUTO 05003KT 10SM OVC070 02/M01 A3006 RMK AO2 T00161007


Station Type Date Time Source
KLWB Decoded METAR 2019/12/16 03:35 UTC NOAA

Lewisburg / Greenbrier, WV, United States (KLWB) 37-52N 080-24W
Dec 15, 2019 - 10:35 PM EST / 2019.12.16 0335 UTC
Wind: from the NE (050 degrees) at 3 MPH (3 KT):0
Visibility: 10 mile(s):0
Sky conditions: overcast
Temperature: 34.9 F (1.6 C)
Dew Point: 30.7 F (-0.7 C)
Relative Humidity: 84%
Pressure (altimeter): 30.06 in. Hg (1017 hPa)
ob: KLWB 160335Z AUTO 05003KT 10SM OVC070 02/M01 A3006 RMK AO2 T00161007
cycle: 3

Station Type Date Time Source
KLWB TAF 2019/12/15 21:54 UTC NOAA

TAF
AMD KLWB 152052Z 1521/1618 25006KT P6SM FEW040
FM160600 VRB02KT P6SM OVC030
FM161000 VRB02KT 4SM -RA BR OVC010
FM161200 VRB02KT 4SM -RA BR OVC005

Example: see airport list